• Join FlightAware (Why Join?)
  • Login
  • US Flag 
02:02AM EDT


 

Airport Tracker/Info


-or-


 

Live Flight TrackerFlight Track Log ✈ UAL256 ✈ 30-Apr-2013 ✈ KDEN - KORD

Flight Track Log - Related Links

Times and Time Zones

All times are in EDT time to prevent confusion due to time zone crossing. See the UAL256 flight status page for this flight to view local times or setup timezone preferences in your user account.

Time Position Orientation Groundspeed Altitude Reporting Facility
EDT Latitude Longitude Course Direction KTS MPH feet Rate Location/Type
09:07PM 39.8833 -104.5667 82° East 186 214 7,300  Level Denver TRACON
09:08PM 39.9000 -104.4833 75° East 242 278 9,400 1,560 Climbing Denver TRACON
09:09PM 39.9340 -104.2131 78° East  Level FlightAware Approximate
09:09PM 39.9167 -104.3833 78° East 282 325 10,600  Level Denver TRACON
09:10PM 39.9594 -104.0607 78° East  Level FlightAware Approximate
09:10PM 39.9333 -104.3286 68° East 294 338 11,500  Level Denver Center
09:11PM 39.9868 -103.9089 79° East  Level FlightAware Approximate
09:11PM 39.9603 -104.2075 74° East 323 372 12,100  Level Denver Center
09:12PM 40.0175 -103.7590 82° East  Level FlightAware Approximate
09:12PM 39.9803 -104.0781 79° East 372 428 13,300  Level Denver Center
09:13PM 39.9944 -103.9386 82° East 387 445 15,900 2,400 Climbing Denver Center
09:14PM 40.0175 -103.7822 79° East 406 467 18,300 2,040 Climbing Denver Center
09:15PM 40.0406 -103.6503 77° East 405 466 20,100 1,680 Climbing Denver Center
09:16PM 40.0658 -103.4961 78° East 424 488 21,800 1,440 Climbing Denver Center
09:17PM 40.0922 -103.3358 78° East 443 510 23,100 1,440 Climbing Denver Center
09:18PM 40.1239 -103.1394 78° East 466 536 24,800 1,560 Climbing Denver Center
09:19PM 40.1500 -102.9650 79° East 480 552 26,300 1,260 Climbing Denver Center
09:20PM 40.1794 -102.7878 78° East 493 567 27,500 1,320 Climbing Denver Center
09:21PM 40.2064 -102.6056 79° East 498 573 29,100 1,500 Climbing Denver Center
09:22PM 40.2322 -102.4353 79° East 500 575 30,600 1,560 Climbing Denver Center
09:23PM 40.2631 -102.2394 78° East 493 567 32,300 1,380 Climbing Denver Center
09:24PM 40.2878 -102.0714 79° East 492 566 33,500 1,080 Climbing Denver Center
09:25PM 40.3131 -101.9056 79° East 486 559 34,600 720 Climbing Denver Center
09:26PM 40.3369 -101.7122 81° East 483 556 35,000 180 Climbing Denver Center
09:27PM 40.3369 -101.5394 90° East 496 571 35,000  Level Denver Center
09:28PM 40.3364 -101.3408 90° East 489 563 35,000  Level Denver Center
09:29PM 40.3356 -101.1697 90° East 491 565 35,000  Level Denver Center
09:30PM 40.3347 -100.9714 90° East 491 565 35,000  Level Denver Center
09:31PM 40.3336 -100.8028 90° East 489 563 35,000  Level Denver Center
09:32PM 40.3308 -100.6061 91° East 488 562 35,000  Level Denver Center
09:33PM 40.3283 -100.4367 91° East 489 563 35,000  Level Denver Center
09:34PM 40.3258 -100.2369 91° East 493 567 35,000  Level Denver Center
09:35PM 40.3236 -100.0658 91° East 494 568 35,000  Level Denver Center
09:36PM 40.3200 -99.8794 91° East 493 567 35,100  Climbing Denver Center
09:37PM 40.3181 -99.7008 91° East 492 566 35,000 -60 Descending Denver Center
09:38PM 40.3147 -99.5258 91° East 483 556 35,000  Level Denver Center
09:40PM 40.3106 -99.3511 92° East 483 556 35,000 -60 Level Denver Center
09:41PM 40.3072 -99.1803 91° East 475 547 34,900  Descending Denver Center
09:42PM 40.2894 -98.9756 96° East 474 545 35,000 60 Climbing Denver Center
09:43PM 40.2544 -98.8072 105° East 480 552 35,100  Climbing Denver Center
09:44PM 40.2194 -98.6433 106° East 472 543 35,000 -60 Descending Denver Center
09:45PM 40.1850 -98.4781 105° East 472 543 35,000  Level Denver Center
09:46PM 40.1433 -98.2794 105° East 474 545 35,000  Level Minneapolis Center
09:47PM 40.1033 -98.0842 105° East 468 539 35,000  Level Minneapolis Center
09:48PM 40.0975 -97.9144 93° East 471 542 35,000  Level Minneapolis Center
09:49PM 40.1019 -97.7456 88° East 469 540 35,000  Level Minneapolis Center
09:50PM 40.1064 -97.5764 88° East 468 539 35,000  Level Minneapolis Center
09:51PM 40.1117 -97.3733 88° East 468 539 35,000  Level Minneapolis Center
09:52PM 40.1181 -97.2158 87° East 469 540 35,000  Level Minneapolis Center
09:53PM 40.1481 -97.0481 77° East 474 545 35,000  Level Minneapolis Center
09:54PM 40.1758 -96.8844 77° East 468 539 35,000  Level Minneapolis Center
09:55PM 40.2033 -96.7192 78° East 467 537 35,000  Level Minneapolis Center
09:56PM 40.2308 -96.5536 78° East 467 537 35,000  Level Minneapolis Center
09:57PM 40.2575 -96.3897 78° East 465 535 35,000  Level Minneapolis Center
09:58PM 40.2903 -96.1928 78° East 464 534 35,000  Level Minneapolis Center
09:59PM 40.3164 -96.0283 78° East 463 533 35,000  Level Minneapolis Center
10:00PM 40.3433 -95.8628 78° East 466 536 35,000  Level Minneapolis Center
10:01PM 40.3686 -95.6997 78° East 463 533 35,000  Level Minneapolis Center
10:02PM 40.3942 -95.5361 78° East 461 531 35,000  Level Minneapolis Center
10:03PM 40.4194 -95.3742 78° East 458 527 35,000  Level Minneapolis Center
10:04PM 40.4453 -95.2119 78° East 457 526 35,000  Level Minneapolis Center
10:05PM 40.4692 -95.0497 79° East 455 524 35,000  Level Minneapolis Center
10:06PM 40.4950 -94.8875 78° East 455 524 35,000  Level Minneapolis Center
10:07PM 40.5194 -94.7250 79° East 455 524 35,000  Level Minneapolis Center
10:08PM 40.5436 -94.5478 80° East 453 521 35,000  Level Minneapolis Center
10:09PM 40.5694 -94.3872 78° East 453 521 35,000  Level Minneapolis Center
10:12PM 40.6067 -94.1866 79° East  Level FlightAware Approximate
10:12PM 40.6322 -93.9342 79° East 451 519 35,000  Level Chicago Center
10:13PM 40.6364 -93.9044 80° East 449 517 35,000  Level Minneapolis Center
10:14PM 40.6592 -93.7431 79° East 450 518 35,000  Level Minneapolis Center
10:15PM 40.6869 -93.5475 79° East 453 521 35,000  Level Minneapolis Center
10:16PM 40.7094 -93.3839 80° East 456 525 35,000  Level Minneapolis Center
10:18PM 40.7531 -93.0533 80° East 459 528 35,000  Level Minneapolis Center
10:19PM 40.7756 -92.8881 80° East 459 528 35,000  Level Minneapolis Center
10:19PM 40.7922 -92.7550 81° East 460 529 35,000  Level Chicago Center
10:20PM 40.8139 -92.5900 80° East 458 527 35,000  Level Chicago Center
10:21PM 40.8356 -92.4244 80° East 458 527 35,000  Level Chicago Center
10:22PM 40.8567 -92.2567 81° East 463 533 35,000  Level Chicago Center
10:23PM 40.8775 -92.0914 80° East 461 531 35,000  Level Chicago Center
10:24PM 40.8983 -91.9231 81° East 465 535 35,000 -180 Level Chicago Center
10:25PM 40.9192 -91.7581 80° East 460 529 34,700 -600 Descending Chicago Center
10:26PM 40.9383 -91.5931 81° East 458 527 33,800 -840 Descending Chicago Center
10:28PM 40.9583 -91.4281 81° East 457 526 33,000 -420 Descending Chicago Center
10:29PM 40.9786 -91.2519 81° East 455 524 33,000  Level Chicago Center
10:30PM 40.9983 -91.0875 81° East 453 521 33,000  Level Chicago Center
10:31PM 41.0158 -90.9233 82° East 451 519 33,000  Level Chicago Center
10:32PM 41.0347 -90.7594 81° East 450 518 33,000  Level Chicago Center
10:33PM 41.0539 -90.5950 81° East 451 519 33,000 -360 Level Chicago Center
10:34PM 41.0719 -90.4303 82° East 449 517 32,300 -1,500 Descending Chicago Center
10:35PM 41.0919 -90.2364 82° East 442 509 30,000 -1,980 Descending Chicago Center
10:36PM 41.1089 -90.0814 82° East 427 491 28,300 -1,740 Descending Chicago Center
10:37PM 41.1253 -89.9294 82° East 417 480 26,500 -1,800 Descending Chicago Center
10:38PM 41.1411 -89.7825 82° East 404 465 24,700 -1,260 Descending Chicago Center
10:39PM 41.1550 -89.6397 83° East 392 451 24,000 -1,440 Descending Chicago Center
10:40PM 41.1964 -89.4994 69° East 411 473 21,800 -2,400 Descending Chicago Center
10:41PM 41.2519 -89.3631 62° Northeast 418 481 19,100 -2,520 Descending Chicago Center
10:42PM 41.3058 -89.2286 62° Northeast 415 478 16,700 -1,980 Descending Chicago Center
10:43PM 41.3553 -89.1017 63° Northeast 397 457 15,200 -1,440 Descending Chicago Center
10:44PM 41.4067 -88.9744 62° Northeast 392 451 13,800 -1,440 Descending Chicago Center
10:45PM 41.4556 -88.8475 63° Northeast 387 445 12,300 -1,380 Descending Chicago Center
10:46PM 41.5056 -88.7261 61° Northeast 376 433 11,100 -660 Descending Chicago Center
10:47PM 41.5531 -88.6028 63° Northeast 373 429 11,000 -60 Descending Chicago Center
10:48PM 41.6139 -88.4578 61° Northeast 372 428 11,000  Level Chicago Center
10:49PM 41.6786 -88.3478 52° Northeast 378 435 11,000  Level Chicago Center
10:50PM 41.7422 -88.2372 52° Northeast 374 430 11,000 -120 Level Chicago Center
10:51PM 41.8064 -88.1278 52° Northeast 370 426 10,800 -1,020 Descending Chicago Center
10:53PM 41.9656 -88.1039 North 302 348 8,000 -1,320 Descending Chicago Center
10:54PM 42.0283 -88.1481 332° Northwest 257 296 6,800 -1,260 Descending Chicago Center
10:55PM 42.0814 -88.1486 360° North 234 269 5,500 -1,200 Descending Chicago Center
10:56PM 42.0833 -88.0667 88° East 205 236 4,400 -1,320 Descending Chicago TRACON
10:57PM 42.0667 -88.0167 114° Southeast 163 188 2,800 -1,620 Descending Chicago TRACON